createdAt,value
2023-05-04T00:00:13.158Z,2.67
2023-05-04T00:02:39.961Z,3.13
2023-05-04T00:05:07.582Z,2.23
2023-05-04T00:07:34.573Z,3.33
2023-05-04T00:10:01.408Z,2.87
2023-05-04T00:12:29.586Z,2.60
2023-05-04T00:14:56.409Z,3.50
2023-05-04T00:17:23.187Z,3.47
2023-05-04T00:19:49.926Z,3.17
2023-05-04T00:22:16.659Z,3.97
2023-05-04T00:24:43.341Z,3.97
2023-05-04T00:27:10.303Z,3.73
2023-05-04T00:29:38.314Z,3.57
2023-05-04T00:32:05.704Z,3.27
2023-05-04T00:34:33.144Z,4.40
2023-05-04T00:36:59.984Z,3.70
2023-05-04T00:39:26.793Z,4.03
2023-05-04T00:41:53.452Z,4.13
2023-05-04T00:44:20.248Z,2.47
2023-05-04T00:46:48.367Z,2.80
2023-05-04T00:49:15.276Z,3.17
2023-05-04T00:51:42.108Z,2.90
2023-05-04T00:54:08.904Z,3.20
2023-05-04T00:56:35.665Z,2.87
2023-05-04T00:59:02.368Z,2.90
2023-05-04T01:01:29.066Z,2.93
2023-05-04T01:03:57.537Z,3.13
2023-05-04T01:06:34.721Z,2.90
2023-05-04T01:09:07.926Z,2.23
2023-05-04T01:11:40.988Z,2.47
2023-05-04T01:14:09.342Z,3.87
2023-05-04T01:16:36.042Z,3.10
2023-05-04T01:19:04.164Z,3.10
2023-05-04T01:21:32.249Z,2.87
2023-05-04T01:23:59.219Z,2.70
2023-05-04T01:26:29.668Z,2.90
2023-05-04T01:29:04.948Z,3.60
2023-05-04T01:31:35.020Z,2.70
2023-05-04T01:34:02.151Z,2.70
2023-05-04T01:36:29.246Z,2.67
2023-05-04T01:38:58.514Z,2.03
2023-05-04T01:41:25.467Z,2.83
2023-05-04T01:43:52.684Z,2.33
2023-05-04T01:46:19.512Z,2.93
2023-05-04T01:48:46.193Z,2.13
2023-05-04T01:51:12.929Z,2.20
2023-05-04T01:53:39.648Z,2.00
2023-05-04T01:56:08.131Z,3.00
2023-05-04T01:58:34.969Z,2.47
2023-05-04T02:01:01.783Z,3.03
2023-05-04T02:03:28.771Z,2.47
2023-05-04T02:05:55.459Z,2.83
2023-05-04T02:08:22.188Z,2.80
2023-05-04T02:10:48.968Z,2.53
2023-05-04T02:13:17.273Z,2.70
2023-05-04T02:15:44.209Z,2.30
2023-05-04T02:18:11.099Z,2.30
2023-05-04T02:20:37.833Z,2.07
2023-05-04T02:23:04.506Z,2.40
2023-05-04T02:25:31.460Z,2.30
2023-05-04T02:27:58.195Z,2.03
2023-05-04T02:30:26.310Z,2.70
2023-05-04T02:32:53.070Z,2.77
2023-05-04T02:35:19.802Z,2.07
2023-05-04T02:37:46.458Z,1.87
2023-05-04T02:40:13.815Z,2.40
2023-05-04T02:42:40.620Z,1.90
2023-05-04T02:45:08.519Z,3.43
2023-05-04T02:47:36.576Z,3.73
2023-05-04T02:50:03.819Z,2.13
2023-05-04T02:52:30.734Z,2.80
2023-05-04T02:54:57.420Z,2.37
2023-05-04T02:57:24.120Z,2.40
2023-05-04T02:59:51.072Z,1.90
2023-05-04T03:02:17.740Z,2.30
2023-05-04T03:04:45.910Z,1.97
2023-05-04T03:07:12.698Z,2.60
2023-05-04T03:09:39.359Z,1.77
2023-05-04T03:12:06.369Z,1.93
2023-05-04T03:14:33.109Z,2.53
2023-05-04T03:16:59.823Z,2.17
2023-05-04T03:19:26.464Z,2.27
2023-05-04T03:21:54.526Z,2.40
2023-05-04T03:24:21.796Z,2.00
2023-05-04T03:26:48.547Z,2.53
2023-05-04T03:29:15.202Z,2.47
2023-05-04T03:31:42.006Z,2.10
2023-05-04T03:34:08.754Z,2.40
2023-05-04T03:36:35.476Z,1.90
2023-05-04T03:39:03.684Z,2.07
2023-05-04T03:41:30.370Z,2.07
2023-05-04T03:43:57.032Z,2.20
2023-05-04T03:46:23.748Z,2.13
2023-05-04T03:48:50.565Z,2.80
2023-05-04T03:51:17.382Z,2.30
2023-05-04T03:53:44.926Z,2.93
2023-05-04T03:56:13.101Z,3.10
2023-05-04T03:58:39.825Z,2.10
2023-05-04T04:01:06.588Z,2.60
2023-05-04T04:03:33.417Z,2.23
2023-05-04T04:06:00.199Z,2.20
2023-05-04T04:08:26.891Z,3.37
2023-05-04T04:10:53.613Z,2.40
2023-05-04T04:13:21.746Z,2.73
2023-05-04T04:15:48.578Z,1.43
2023-05-04T04:18:15.287Z,2.03
2023-05-04T04:20:42.023Z,1.57
2023-05-04T04:23:08.697Z,2.60
2023-05-04T04:25:35.366Z,2.33
2023-05-04T04:28:02.159Z,2.20
2023-05-04T04:30:30.218Z,2.50
2023-05-04T04:32:57.052Z,2.30
2023-05-04T04:35:23.916Z,3.30
2023-05-04T04:37:50.671Z,3.30
2023-05-04T04:40:17.521Z,3.17
2023-05-04T04:42:44.244Z,3.27
2023-05-04T04:45:11.456Z,2.73
2023-05-04T04:47:39.522Z,2.93
2023-05-04T04:50:07.248Z,3.63
2023-05-04T04:52:34.151Z,3.27
2023-05-04T04:55:01.178Z,3.40
2023-05-04T04:57:28.942Z,3.33
2023-05-04T04:59:57.300Z,2.90
2023-05-04T05:02:23.978Z,3.53
2023-05-04T05:04:52.175Z,3.70
2023-05-04T05:07:18.941Z,4.57
2023-05-04T05:09:45.653Z,4.10
2023-05-04T05:12:12.386Z,3.97
2023-05-04T05:14:39.090Z,4.40
2023-05-04T05:17:05.884Z,5.37
2023-05-04T05:19:32.753Z,4.17
2023-05-04T05:22:00.787Z,4.07
2023-05-04T05:24:27.489Z,4.60
2023-05-04T05:26:54.237Z,4.53
2023-05-04T05:29:20.952Z,4.70
2023-05-04T05:31:47.732Z,5.87
2023-05-04T05:34:14.486Z,5.13
2023-05-04T05:36:41.180Z,4.37
2023-05-04T05:39:09.374Z,4.43
2023-05-04T05:41:36.047Z,5.80
2023-05-04T05:44:02.797Z,3.63
2023-05-04T05:46:29.615Z,5.27
2023-05-04T05:48:56.392Z,4.50
2023-05-04T05:51:23.102Z,4.20
2023-05-04T05:53:49.958Z,4.27
2023-05-04T05:56:17.985Z,4.60
2023-05-04T05:58:44.666Z,3.77
2023-05-04T06:01:11.457Z,4.83
2023-05-04T06:03:38.329Z,5.50
2023-05-04T06:06:05.204Z,4.50
2023-05-04T06:08:32.385Z,3.77
2023-05-04T06:10:59.076Z,2.80
2023-05-04T06:13:27.111Z,3.10
2023-05-04T06:15:54.355Z,3.37
2023-05-04T06:18:21.536Z,3.13
2023-05-04T06:20:48.326Z,2.67
2023-05-04T06:23:15.325Z,3.77
2023-05-04T06:25:42.005Z,3.40
2023-05-04T06:28:09.009Z,2.97
2023-05-04T06:30:37.089Z,3.63
2023-05-04T06:33:03.974Z,2.77
2023-05-04T06:35:30.700Z,3.80
2023-05-04T06:37:57.452Z,3.53
2023-05-04T06:40:26.079Z,3.43
2023-05-04T06:42:53.176Z,3.83
2023-05-04T06:45:20.007Z,2.87
2023-05-04T06:47:48.267Z,2.73
2023-05-04T06:50:15.220Z,3.13
2023-05-04T06:52:43.463Z,3.00
2023-05-04T06:55:10.287Z,2.73
2023-05-04T06:57:37.118Z,2.40
2023-05-04T07:00:04.502Z,3.43
2023-05-04T07:02:31.476Z,2.97
2023-05-04T07:04:59.628Z,2.90
2023-05-04T07:07:26.540Z,2.10
2023-05-04T07:09:53.265Z,3.20
2023-05-04T07:12:19.936Z,2.93
2023-05-04T07:14:46.687Z,2.50
2023-05-04T07:17:13.456Z,2.70
2023-05-04T07:20:36.258Z,3.20
2023-05-04T07:23:02.293Z,3.80
2023-05-04T07:25:29.381Z,2.53
2023-05-04T07:27:56.133Z,3.10
2023-05-04T07:30:22.944Z,4.00
2023-05-04T07:32:50.058Z,2.90
2023-05-04T07:35:17.086Z,2.87
2023-05-04T07:37:43.872Z,3.70
2023-05-04T07:40:12.826Z,3.43
2023-05-04T07:42:39.664Z,2.73
2023-05-04T07:45:07.514Z,3.60
2023-05-04T07:47:34.349Z,3.13
2023-05-04T07:50:01.069Z,3.03
2023-05-04T07:52:27.832Z,3.00
2023-05-04T07:54:54.828Z,3.47
2023-05-04T07:57:22.930Z,3.43
2023-05-04T07:59:53.182Z,4.07
2023-05-04T08:02:20.033Z,3.50
2023-05-04T08:04:46.834Z,3.20
2023-05-04T08:07:13.533Z,3.73
2023-05-04T08:09:40.212Z,2.90
2023-05-04T08:12:07.152Z,3.47
2023-05-04T08:14:36.250Z,3.97
2023-05-04T08:17:04.838Z,4.20
2023-05-04T08:19:32.668Z,4.00
2023-05-04T08:21:59.378Z,4.23
2023-05-04T08:24:26.125Z,3.53
2023-05-04T08:27:06.651Z,3.67
2023-05-04T08:29:35.679Z,3.60
2023-05-04T08:32:02.519Z,3.60
2023-05-04T08:34:29.297Z,3.30
2023-05-04T08:36:56.000Z,4.00
2023-05-04T08:39:22.665Z,3.77
2023-05-04T08:41:49.337Z,4.00
2023-05-04T08:44:17.893Z,3.60
2023-05-04T08:46:47.402Z,4.03
2023-05-04T08:49:14.091Z,4.27
2023-05-04T08:51:40.947Z,3.33
2023-05-04T08:54:10.331Z,3.37
2023-05-04T08:56:39.884Z,4.37
2023-05-04T08:59:09.673Z,3.90
2023-05-04T09:01:37.828Z,3.13
2023-05-04T09:04:06.054Z,4.37
2023-05-04T09:06:32.893Z,4.10
2023-05-04T09:08:59.752Z,3.97
2023-05-04T09:11:26.531Z,4.10
2023-05-04T09:13:53.221Z,3.70
2023-05-04T09:16:19.899Z,4.00
2023-05-04T09:18:46.690Z,3.63
2023-05-04T09:21:14.777Z,3.67
2023-05-04T09:23:48.670Z,3.40
2023-05-04T09:26:15.718Z,3.67
2023-05-04T09:28:42.593Z,4.03
2023-05-04T09:31:11.057Z,3.80
2023-05-04T09:33:37.821Z,3.60
2023-05-04T09:36:15.836Z,3.43
2023-05-04T09:38:42.722Z,3.87
2023-05-04T09:41:09.536Z,3.67
2023-05-04T09:43:40.090Z,3.90
2023-05-04T09:46:07.241Z,4.30
2023-05-04T09:48:34.079Z,4.17
2023-05-04T09:51:02.345Z,3.10
2023-05-04T09:53:31.160Z,3.60
2023-05-04T09:56:08.409Z,4.93
2023-05-04T09:58:35.732Z,4.20
2023-05-04T10:01:02.936Z,3.80
2023-05-04T10:03:30.378Z,4.20
2023-05-04T10:05:59.152Z,5.20
2023-05-04T10:08:26.959Z,4.27
2023-05-04T10:10:55.430Z,3.57
2023-05-04T10:13:23.119Z,3.90
2023-05-04T10:16:02.614Z,4.73
2023-05-04T10:18:40.797Z,4.03
2023-05-04T10:21:23.285Z,4.00
2023-05-04T10:24:06.917Z,4.57
2023-05-04T10:26:51.011Z,4.03
2023-05-04T10:29:23.598Z,3.60
2023-05-04T10:32:02.157Z,3.60
2023-05-04T10:34:32.211Z,4.23
2023-05-04T10:37:00.050Z,4.20
2023-05-04T10:39:29.042Z,3.40
2023-05-04T10:42:04.202Z,3.93
2023-05-04T10:44:33.071Z,3.73
2023-05-04T10:47:01.605Z,4.40
2023-05-04T10:49:28.884Z,4.37
2023-05-04T10:52:10.082Z,4.20
2023-05-04T10:54:37.544Z,4.33
2023-05-04T10:57:07.326Z,5.10
2023-05-04T10:59:36.480Z,3.67
2023-05-04T11:02:05.062Z,3.90
2023-05-04T11:04:32.486Z,3.97
2023-05-04T11:07:00.228Z,3.70
2023-05-04T11:09:28.150Z,5.20
2023-05-04T11:11:55.502Z,3.20
2023-05-04T11:14:25.844Z,4.30
2023-05-04T11:16:52.853Z,5.13
2023-05-04T11:19:19.669Z,3.80
2023-05-04T11:21:46.382Z,3.63
2023-05-04T11:24:13.897Z,4.23
2023-05-04T11:26:47.532Z,4.57
2023-05-04T11:29:15.616Z,3.23
2023-05-04T11:31:54.431Z,3.70
2023-05-04T11:34:21.487Z,4.33
2023-05-04T11:36:49.826Z,3.70
2023-05-04T11:39:17.145Z,3.73
2023-05-04T11:41:44.402Z,3.40
2023-05-04T11:44:11.378Z,3.37
2023-05-04T11:46:38.972Z,4.13
2023-05-04T11:49:07.130Z,4.13
2023-05-04T11:51:33.810Z,3.90
2023-05-04T11:54:00.486Z,3.67
2023-05-04T11:56:27.299Z,4.10
2023-05-04T11:58:54.061Z,3.93
2023-05-04T12:01:21.064Z,3.43
2023-05-04T12:03:54.540Z,3.57
2023-05-04T12:06:38.171Z,3.73
2023-05-04T12:09:06.477Z,3.33
2023-05-04T12:11:34.619Z,3.63
2023-05-04T12:14:03.329Z,3.80
2023-05-04T12:16:30.490Z,3.27
2023-05-04T12:19:03.518Z,3.70
2023-05-04T12:21:33.568Z,4.07
2023-05-04T12:24:02.324Z,3.30
2023-05-04T12:26:29.594Z,3.60
2023-05-04T12:28:58.609Z,2.53
2023-05-04T12:31:25.794Z,3.00
2023-05-04T12:33:52.866Z,3.00
2023-05-04T12:36:19.586Z,3.60
2023-05-04T12:38:46.356Z,3.87
2023-05-04T12:41:14.461Z,2.90
2023-05-04T12:44:04.228Z,3.10
2023-05-04T12:46:31.163Z,3.63
2023-05-04T12:48:57.950Z,3.40
2023-05-04T12:51:24.734Z,3.07
2023-05-04T12:53:51.416Z,3.23
2023-05-04T12:56:44.590Z,3.50
2023-05-04T12:59:11.436Z,3.93
2023-05-04T13:01:39.885Z,2.90
2023-05-04T13:04:06.597Z,3.53
2023-05-04T13:06:33.321Z,3.13
2023-05-04T13:09:00.128Z,3.30
2023-05-04T13:11:28.492Z,2.90
2023-05-04T13:14:00.573Z,3.40
2023-05-04T13:16:28.008Z,3.30
2023-05-04T13:18:56.842Z,3.47
2023-05-04T13:21:23.781Z,3.40
2023-05-04T13:23:50.493Z,3.17
2023-05-04T13:26:17.461Z,2.80
2023-05-04T13:28:45.633Z,3.20
2023-05-04T13:31:14.414Z,2.60
2023-05-04T13:33:47.252Z,2.80
2023-05-04T13:36:16.142Z,2.87
2023-05-04T13:38:45.796Z,2.93
2023-05-04T13:41:12.630Z,2.43
2023-05-04T13:43:39.466Z,3.27
2023-05-04T13:46:07.826Z,2.23
2023-05-04T13:48:34.916Z,2.90
2023-05-04T13:51:02.853Z,2.40
2023-05-04T13:53:32.632Z,3.17
2023-05-04T13:55:59.396Z,2.83
2023-05-04T13:58:26.244Z,2.70
2023-05-04T14:00:54.149Z,3.30
2023-05-04T14:03:22.344Z,2.17
2023-05-04T14:05:49.092Z,2.70
2023-05-04T14:08:15.749Z,2.40
2023-05-04T14:10:42.440Z,2.37
2023-05-04T14:13:09.143Z,2.60
2023-05-04T14:15:35.845Z,2.77
2023-05-04T14:18:02.708Z,3.00
2023-05-04T14:20:31.334Z,2.77
2023-05-04T14:22:57.987Z,2.87
2023-05-04T14:25:24.667Z,3.10
2023-05-04T14:27:51.358Z,3.17
2023-05-04T14:30:18.109Z,2.57
2023-05-04T14:32:45.184Z,3.30
2023-05-04T14:35:12.955Z,2.80
2023-05-04T14:37:41.463Z,2.70
2023-05-04T14:40:09.760Z,2.80
2023-05-04T14:42:38.068Z,2.77
2023-05-04T14:45:06.752Z,3.27
2023-05-04T14:47:34.305Z,2.70
2023-05-04T14:50:01.384Z,2.40
2023-05-04T14:52:28.656Z,2.83
2023-05-04T14:54:57.550Z,3.30
2023-05-04T14:57:24.986Z,4.00
2023-05-04T14:59:52.009Z,3.23
2023-05-04T15:02:19.188Z,2.97
2023-05-04T15:04:50.354Z,2.67
2023-05-04T15:07:17.296Z,2.50
2023-05-04T15:09:44.446Z,2.53
2023-05-04T15:12:12.966Z,2.57
2023-05-04T15:14:39.925Z,2.30
2023-05-04T15:17:06.838Z,3.13
2023-05-04T15:19:38.025Z,3.00
2023-05-04T15:22:05.409Z,2.40
2023-05-04T15:24:34.820Z,2.63
2023-05-04T15:27:02.305Z,2.53
2023-05-04T15:29:30.828Z,2.80
2023-05-04T15:31:58.298Z,3.20
2023-05-04T15:34:25.621Z,2.63
2023-05-04T15:36:52.665Z,2.40
2023-05-04T15:39:19.616Z,2.90
2023-05-04T15:41:46.499Z,2.83
2023-05-04T15:44:16.917Z,2.73
2023-05-04T15:46:48.078Z,2.60
2023-05-04T15:49:15.417Z,3.47
2023-05-04T15:51:42.389Z,2.40
2023-05-04T15:54:09.586Z,2.30
2023-05-04T15:56:38.872Z,2.80
2023-05-04T15:59:05.754Z,2.73
2023-05-04T16:01:32.840Z,2.67
2023-05-04T16:04:01.430Z,3.07
2023-05-04T16:06:28.134Z,2.80
2023-05-04T16:08:54.848Z,2.93
2023-05-04T16:11:21.589Z,3.20
2023-05-04T16:13:48.330Z,2.77
2023-05-04T16:16:15.070Z,2.63
2023-05-04T16:18:41.844Z,3.20
2023-05-04T16:21:10.925Z,3.20
2023-05-04T16:23:37.687Z,6.90
2023-05-04T16:26:04.565Z,3.70
2023-05-04T16:28:31.350Z,3.60
2023-05-04T16:30:59.842Z,3.50
2023-05-04T16:33:26.612Z,3.20
2023-05-04T16:35:53.362Z,3.13
2023-05-04T16:38:21.747Z,3.43
2023-05-04T16:40:48.603Z,3.17
2023-05-04T16:43:15.553Z,4.17
2023-05-04T16:45:42.618Z,3.77
2023-05-04T16:48:09.329Z,4.53
2023-05-04T16:50:36.126Z,3.20
2023-05-04T16:53:02.880Z,3.20
2023-05-04T16:55:31.035Z,3.37
2023-05-04T16:57:58.032Z,3.90
2023-05-04T17:00:25.377Z,3.53
2023-05-04T17:02:52.313Z,3.50
2023-05-04T17:05:19.231Z,3.67
2023-05-04T17:07:46.207Z,3.40
2023-05-04T17:10:13.344Z,3.10
2023-05-04T17:12:41.368Z,3.30
2023-05-04T17:15:09.221Z,3.50
2023-05-04T17:17:36.031Z,3.43
2023-05-04T17:20:02.940Z,3.40
2023-05-04T17:22:29.669Z,3.70
2023-05-04T17:24:56.981Z,4.13
2023-05-04T17:27:24.684Z,3.70
2023-05-04T17:29:52.814Z,3.23
2023-05-04T17:32:19.581Z,3.30
2023-05-04T17:34:46.298Z,3.80
2023-05-04T17:37:13.075Z,3.40
2023-05-04T17:39:39.717Z,3.20
2023-05-04T17:42:06.367Z,2.80
2023-05-04T17:44:33.000Z,3.03
2023-05-04T17:47:00.997Z,3.80
2023-05-04T17:49:27.772Z,2.90
2023-05-04T17:51:54.483Z,3.30
2023-05-04T17:54:21.153Z,3.50
2023-05-04T17:56:47.857Z,4.10
2023-05-04T17:59:14.566Z,3.57
2023-05-04T18:01:56.845Z,3.50
2023-05-04T18:04:25.058Z,2.90
2023-05-04T18:06:51.744Z,3.90
2023-05-04T18:09:18.504Z,3.70
2023-05-04T18:11:45.294Z,2.90
2023-05-04T18:14:11.978Z,3.13
2023-05-04T18:16:38.787Z,3.60
2023-05-04T18:19:05.551Z,3.57
2023-05-04T18:21:36.479Z,3.30
2023-05-04T18:24:03.347Z,3.17
2023-05-04T18:26:30.297Z,3.60
2023-05-04T18:29:01.728Z,3.10
2023-05-04T18:31:38.183Z,3.43
2023-05-04T18:34:04.974Z,2.97
2023-05-04T18:36:31.796Z,3.13
2023-05-04T18:38:59.812Z,2.70
2023-05-04T18:41:27.509Z,4.10
2023-05-04T18:43:54.431Z,3.03
2023-05-04T18:46:21.204Z,3.10
2023-05-04T18:48:48.026Z,2.70
2023-05-04T18:51:14.665Z,3.03
2023-05-04T18:53:41.343Z,2.60
2023-05-04T18:56:10.710Z,3.40
2023-05-04T18:58:38.214Z,3.10
2023-05-04T19:01:04.973Z,3.17
2023-05-04T19:03:32.057Z,2.93
2023-05-04T19:05:59.197Z,3.43
2023-05-04T19:08:25.952Z,3.43
2023-05-04T19:10:56.241Z,3.20
2023-05-04T19:13:24.430Z,3.70
2023-05-04T19:15:51.137Z,2.87
2023-05-04T19:18:17.922Z,3.60
2023-05-04T19:20:45.142Z,3.53
2023-05-04T19:26:21.024Z,3.83
2023-05-04T19:29:20.321Z,3.23
2023-05-04T19:31:46.759Z,3.40
2023-05-04T19:34:15.075Z,3.93
2023-05-04T19:36:42.859Z,4.00
2023-05-04T19:39:09.576Z,3.80
2023-05-04T19:41:36.245Z,3.43
2023-05-04T19:44:04.455Z,4.23
2023-05-04T19:46:31.204Z,4.10
2023-05-04T19:48:57.937Z,3.13
2023-05-04T19:51:24.683Z,4.10
2023-05-04T19:53:51.447Z,3.23
2023-05-04T19:56:18.140Z,4.10
2023-05-04T19:58:44.796Z,3.90
2023-05-04T20:01:12.830Z,2.90
2023-05-04T20:03:39.614Z,3.73
2023-05-04T20:06:06.346Z,3.97
2023-05-04T20:08:33.006Z,3.80
2023-05-04T20:10:59.723Z,4.07
2023-05-04T20:13:26.657Z,3.60
2023-05-04T20:15:53.326Z,3.63
2023-05-04T20:18:21.441Z,3.63
2023-05-04T20:20:48.061Z,3.80
2023-05-04T20:23:14.742Z,3.33
2023-05-04T20:25:41.460Z,3.30
2023-05-04T20:28:08.134Z,3.90
2023-05-04T20:30:34.766Z,3.80
2023-05-04T20:33:01.484Z,3.70
2023-05-04T20:35:29.497Z,4.27
2023-05-04T20:37:56.169Z,2.70
2023-05-04T20:40:22.861Z,2.87
2023-05-04T20:42:49.511Z,3.20
2023-05-04T20:45:16.157Z,3.37
2023-05-04T20:47:42.890Z,3.90
2023-05-04T20:50:09.800Z,3.03
2023-05-04T20:52:37.965Z,4.30
2023-05-04T20:55:05.788Z,3.53
2023-05-04T20:57:32.546Z,3.30
2023-05-04T20:59:59.237Z,2.70
2023-05-04T21:02:25.939Z,3.50
2023-05-04T21:04:52.682Z,3.10
2023-05-04T21:07:19.665Z,3.10
2023-05-04T21:09:47.700Z,3.20
2023-05-04T21:12:14.369Z,3.80
2023-05-04T21:14:41.016Z,3.67
2023-05-04T21:17:07.707Z,3.23
2023-05-04T21:19:34.342Z,3.63
2023-05-04T21:22:01.002Z,2.93
2023-05-04T21:24:27.633Z,3.83
2023-05-04T21:26:55.632Z,3.77
2023-05-04T21:29:22.393Z,4.20
2023-05-04T21:31:49.132Z,3.10
2023-05-04T21:34:16.063Z,3.77
2023-05-04T21:36:42.721Z,4.57
2023-05-04T21:39:09.378Z,4.47
2023-05-04T21:41:36.323Z,3.90
2023-05-04T21:44:04.609Z,3.97
2023-05-04T21:46:31.307Z,4.27
2023-05-04T21:48:57.999Z,3.70
2023-05-04T21:51:24.638Z,4.10
2023-05-04T21:53:51.280Z,3.47
2023-05-04T21:56:17.936Z,4.37
2023-05-04T21:58:44.569Z,3.87
2023-05-04T22:01:17.060Z,4.23
2023-05-04T22:03:44.253Z,3.90
2023-05-04T22:06:11.156Z,3.57
2023-05-04T22:08:37.883Z,3.27
2023-05-04T22:11:04.579Z,3.30
2023-05-04T22:13:31.269Z,3.30
2023-05-04T22:15:57.973Z,3.43
2023-05-04T22:18:25.992Z,3.40
2023-05-04T22:20:52.671Z,3.40
2023-05-04T22:23:19.536Z,3.43
2023-05-04T22:25:46.169Z,3.17
2023-05-04T22:28:12.825Z,3.93
2023-05-04T22:30:39.585Z,2.90
2023-05-04T22:33:06.405Z,3.03
2023-05-04T22:35:34.449Z,3.90
2023-05-04T22:38:01.150Z,2.90
2023-05-04T22:40:27.839Z,3.87
2023-05-04T22:42:54.520Z,3.77
2023-05-04T22:45:21.335Z,3.87
2023-05-04T22:47:48.093Z,2.83
2023-05-04T22:50:14.803Z,3.50
2023-05-04T22:52:42.874Z,3.00
2023-05-04T22:55:09.846Z,3.53
2023-05-04T22:57:36.663Z,3.00
2023-05-04T23:00:04.020Z,3.93
2023-05-04T23:02:30.770Z,3.87
2023-05-04T23:04:57.489Z,3.13
2023-05-04T23:07:24.216Z,3.80
2023-05-04T23:09:52.185Z,3.97
2023-05-04T23:12:18.968Z,4.30
2023-05-04T23:14:49.197Z,4.50
2023-05-04T23:17:15.841Z,3.70
2023-05-04T23:19:42.454Z,3.83
2023-05-04T23:22:09.111Z,4.53
2023-05-04T23:24:35.773Z,3.40
2023-05-04T23:27:03.914Z,3.00
2023-05-04T23:29:30.576Z,4.17
2023-05-04T23:31:57.303Z,3.27
2023-05-04T23:34:24.049Z,3.60
2023-05-04T23:36:53.087Z,4.20
2023-05-04T23:39:19.907Z,3.90
2023-05-04T23:41:46.588Z,3.53
2023-05-04T23:44:14.562Z,3.60
2023-05-04T23:46:41.307Z,3.43
2023-05-04T23:49:07.971Z,3.80
2023-05-04T23:51:34.633Z,3.20
2023-05-04T23:54:01.256Z,2.90
2023-05-04T23:56:27.977Z,3.50
2023-05-04T23:58:54.628Z,4.10
